sensor_id;sensor_type;location;lat;lon;timestamp;P1;durP1;ratioP1;P2;durP2;ratioP2
31618;SDS011;18230;51.502;7.108;2023-05-09T00:02:42;13.02;;;10.02;;
31618;SDS011;18230;51.502;7.108;2023-05-09T00:07:44;12.85;;;8.70;;
31618;SDS011;18230;51.502;7.108;2023-05-09T00:12:45;10.48;;;8.48;;
31618;SDS011;18230;51.502;7.108;2023-05-09T00:17:46;16.38;;;10.70;;
31618;SDS011;18230;51.502;7.108;2023-05-09T00:22:47;12.18;;;10.82;;
31618;SDS011;18230;51.502;7.108;2023-05-09T00:27:47;13.82;;;11.70;;
31618;SDS011;18230;51.502;7.108;2023-05-09T00:32:48;13.63;;;11.25;;
31618;SDS011;18230;51.502;7.108;2023-05-09T00:37:49;13.73;;;11.05;;
31618;SDS011;18230;51.502;7.108;2023-05-09T00:42:49;17.58;;;12.40;;
31618;SDS011;18230;51.502;7.108;2023-05-09T00:47:50;16.35;;;12.68;;
31618;SDS011;18230;51.502;7.108;2023-05-09T00:52:51;18.15;;;14.02;;
31618;SDS011;18230;51.502;7.108;2023-05-09T00:57:52;15.48;;;13.18;;
31618;SDS011;18230;51.502;7.108;2023-05-09T01:02:53;22.15;;;14.05;;
31618;SDS011;18230;51.502;7.108;2023-05-09T01:08:04;17.58;;;13.48;;
31618;SDS011;18230;51.502;7.108;2023-05-09T01:18:16;20.10;;;15.27;;
31618;SDS011;18230;51.502;7.108;2023-05-09T01:34:18;19.27;;;14.88;;
31618;SDS011;18230;51.502;7.108;2023-05-09T01:39:21;21.83;;;14.82;;
31618;SDS011;18230;51.502;7.108;2023-05-09T01:44:25;21.85;;;15.32;;
31618;SDS011;18230;51.502;7.108;2023-05-09T01:49:37;19.67;;;16.35;;
31618;SDS011;18230;51.502;7.108;2023-05-09T01:54:40;19.13;;;15.82;;
31618;SDS011;18230;51.502;7.108;2023-05-09T01:59:42;23.02;;;16.30;;
31618;SDS011;18230;51.502;7.108;2023-05-09T02:04:44;19.85;;;16.13;;
31618;SDS011;18230;51.502;7.108;2023-05-09T02:09:47;20.75;;;15.70;;
31618;SDS011;18230;51.502;7.108;2023-05-09T02:14:49;23.95;;;16.73;;
31618;SDS011;18230;51.502;7.108;2023-05-09T02:19:50;20.02;;;16.27;;
31618;SDS011;18230;51.502;7.108;2023-05-09T02:24:51;21.75;;;16.77;;
31618;SDS011;18230;51.502;7.108;2023-05-09T02:29:54;23.15;;;16.95;;
31618;SDS011;18230;51.502;7.108;2023-05-09T02:34:57;21.73;;;16.58;;
31618;SDS011;18230;51.502;7.108;2023-05-09T02:40:00;21.10;;;17.15;;
31618;SDS011;18230;51.502;7.108;2023-05-09T02:45:01;23.08;;;15.45;;
31618;SDS011;18230;51.502;7.108;2023-05-09T02:50:02;19.15;;;15.88;;
31618;SDS011;18230;51.502;7.108;2023-05-09T02:55:03;21.73;;;15.73;;
31618;SDS011;18230;51.502;7.108;2023-05-09T03:00:06;23.75;;;18.98;;
31618;SDS011;18230;51.502;7.108;2023-05-09T03:05:11;20.23;;;16.40;;
31618;SDS011;18230;51.502;7.108;2023-05-09T03:10:12;25.35;;;16.80;;
31618;SDS011;18230;51.502;7.108;2023-05-09T03:15:13;23.90;;;16.15;;
31618;SDS011;18230;51.502;7.108;2023-05-09T03:20:13;24.05;;;16.70;;
31618;SDS011;18230;51.502;7.108;2023-05-09T03:25:14;21.98;;;17.60;;
31618;SDS011;18230;51.502;7.108;2023-05-09T03:30:15;22.05;;;18.33;;
31618;SDS011;18230;51.502;7.108;2023-05-09T03:35:16;22.80;;;18.13;;
31618;SDS011;18230;51.502;7.108;2023-05-09T03:40:17;22.17;;;17.35;;
31618;SDS011;18230;51.502;7.108;2023-05-09T03:45:18;29.55;;;19.08;;
31618;SDS011;18230;51.502;7.108;2023-05-09T03:50:19;27.77;;;19.55;;
31618;SDS011;18230;51.502;7.108;2023-05-09T03:55:20;27.40;;;20.60;;
31618;SDS011;18230;51.502;7.108;2023-05-09T04:00:22;29.90;;;21.00;;
31618;SDS011;18230;51.502;7.108;2023-05-09T04:05:25;34.13;;;22.27;;
31618;SDS011;18230;51.502;7.108;2023-05-09T04:10:26;39.50;;;24.60;;
31618;SDS011;18230;51.502;7.108;2023-05-09T04:15:27;39.50;;;24.48;;
31618;SDS011;18230;51.502;7.108;2023-05-09T04:20:27;41.60;;;26.25;;
31618;SDS011;18230;51.502;7.108;2023-05-09T04:25:28;37.70;;;24.17;;
31618;SDS011;18230;51.502;7.108;2023-05-09T04:30:30;39.70;;;25.10;;
31618;SDS011;18230;51.502;7.108;2023-05-09T04:35:31;39.25;;;25.25;;
31618;SDS011;18230;51.502;7.108;2023-05-09T04:40:32;42.50;;;25.65;;
31618;SDS011;18230;51.502;7.108;2023-05-09T04:45:32;49.58;;;27.05;;
31618;SDS011;18230;51.502;7.108;2023-05-09T04:50:33;43.72;;;26.95;;
31618;SDS011;18230;51.502;7.108;2023-05-09T04:55:35;44.90;;;27.08;;
31618;SDS011;18230;51.502;7.108;2023-05-09T05:00:36;48.05;;;30.63;;
31618;SDS011;18230;51.502;7.108;2023-05-09T05:05:36;55.22;;;30.20;;
31618;SDS011;18230;51.502;7.108;2023-05-09T05:10:39;46.40;;;26.95;;
31618;SDS011;18230;51.502;7.108;2023-05-09T05:15:40;51.97;;;29.50;;
31618;SDS011;18230;51.502;7.108;2023-05-09T05:20:41;46.97;;;28.10;;
31618;SDS011;18230;51.502;7.108;2023-05-09T05:25:43;45.33;;;28.23;;
31618;SDS011;18230;51.502;7.108;2023-05-09T05:30:44;49.33;;;28.33;;
31618;SDS011;18230;51.502;7.108;2023-05-09T05:35:44;46.35;;;29.00;;
31618;SDS011;18230;51.502;7.108;2023-05-09T05:40:45;46.67;;;27.17;;
31618;SDS011;18230;51.502;7.108;2023-05-09T05:45:46;53.80;;;29.42;;
31618;SDS011;18230;51.502;7.108;2023-05-09T05:50:47;50.72;;;29.77;;
31618;SDS011;18230;51.502;7.108;2023-05-09T05:55:48;61.78;;;35.33;;
31618;SDS011;18230;51.502;7.108;2023-05-09T06:00:50;52.97;;;28.33;;
31618;SDS011;18230;51.502;7.108;2023-05-09T06:05:51;50.67;;;27.58;;
31618;SDS011;18230;51.502;7.108;2023-05-09T06:10:52;45.40;;;26.90;;
31618;SDS011;18230;51.502;7.108;2023-05-09T06:15:56;43.35;;;26.73;;
31618;SDS011;18230;51.502;7.108;2023-05-09T06:20:58;42.25;;;26.20;;
31618;SDS011;18230;51.502;7.108;2023-05-09T06:25:58;35.95;;;23.92;;
31618;SDS011;18230;51.502;7.108;2023-05-09T06:30:59;34.40;;;22.48;;
31618;SDS011;18230;51.502;7.108;2023-05-09T06:36:00;27.88;;;21.48;;
31618;SDS011;18230;51.502;7.108;2023-05-09T06:41:01;30.58;;;21.80;;
31618;SDS011;18230;51.502;7.108;2023-05-09T06:46:02;28.48;;;19.50;;
31618;SDS011;18230;51.502;7.108;2023-05-09T06:51:03;21.90;;;17.85;;
31618;SDS011;18230;51.502;7.108;2023-05-09T06:56:04;32.70;;;20.83;;
31618;SDS011;18230;51.502;7.108;2023-05-09T07:01:05;23.45;;;17.23;;
31618;SDS011;18230;51.502;7.108;2023-05-09T07:06:06;20.98;;;16.02;;
31618;SDS011;18230;51.502;7.108;2023-05-09T07:11:07;19.83;;;15.77;;
31618;SDS011;18230;51.502;7.108;2023-05-09T07:16:07;19.88;;;15.43;;
31618;SDS011;18230;51.502;7.108;2023-05-09T07:21:08;18.60;;;16.35;;
31618;SDS011;18230;51.502;7.108;2023-05-09T07:26:09;19.67;;;15.40;;
31618;SDS011;18230;51.502;7.108;2023-05-09T07:31:12;19.90;;;14.52;;
31618;SDS011;18230;51.502;7.108;2023-05-09T07:36:13;16.33;;;13.55;;
31618;SDS011;18230;51.502;7.108;2023-05-09T07:41:15;27.80;;;20.25;;
31618;SDS011;18230;51.502;7.108;2023-05-09T07:46:16;18.95;;;14.88;;
31618;SDS011;18230;51.502;7.108;2023-05-09T07:51:17;16.55;;;11.43;;
31618;SDS011;18230;51.502;7.108;2023-05-09T07:56:18;17.80;;;14.07;;
31618;SDS011;18230;51.502;7.108;2023-05-09T08:01:18;15.15;;;10.32;;
31618;SDS011;18230;51.502;7.108;2023-05-09T08:06:20;14.35;;;9.70;;
31618;SDS011;18230;51.502;7.108;2023-05-09T08:11:20;13.75;;;9.35;;
31618;SDS011;18230;51.502;7.108;2023-05-09T08:16:21;14.77;;;10.38;;
31618;SDS011;18230;51.502;7.108;2023-05-09T08:21:22;15.73;;;9.13;;
31618;SDS011;18230;51.502;7.108;2023-05-09T08:26:23;12.32;;;9.10;;
31618;SDS011;18230;51.502;7.108;2023-05-09T08:31:25;8.88;;;6.97;;
31618;SDS011;18230;51.502;7.108;2023-05-09T08:36:26;10.30;;;6.97;;
31618;SDS011;18230;51.502;7.108;2023-05-09T08:41:27;10.85;;;7.28;;
31618;SDS011;18230;51.502;7.108;2023-05-09T08:46:32;8.93;;;6.82;;
31618;SDS011;18230;51.502;7.108;2023-05-09T08:51:37;14.20;;;7.18;;
31618;SDS011;18230;51.502;7.108;2023-05-09T08:56:40;8.38;;;6.18;;
31618;SDS011;18230;51.502;7.108;2023-05-09T09:01:41;6.88;;;6.10;;
31618;SDS011;18230;51.502;7.108;2023-05-09T09:06:43;8.70;;;6.65;;
31618;SDS011;18230;51.502;7.108;2023-05-09T09:11:44;7.72;;;5.63;;
31618;SDS011;18230;51.502;7.108;2023-05-09T09:16:46;8.45;;;4.75;;
31618;SDS011;18230;51.502;7.108;2023-05-09T09:21:48;6.95;;;4.40;;
31618;SDS011;18230;51.502;7.108;2023-05-09T09:26:55;6.93;;;4.13;;
31618;SDS011;18230;51.502;7.108;2023-05-09T09:31:55;5.45;;;4.53;;
31618;SDS011;18230;51.502;7.108;2023-05-09T09:36:56;7.75;;;5.38;;
31618;SDS011;18230;51.502;7.108;2023-05-09T09:42:01;7.53;;;4.70;;
31618;SDS011;18230;51.502;7.108;2023-05-09T09:47:10;6.63;;;4.97;;
31618;SDS011;18230;51.502;7.108;2023-05-09T09:52:11;5.85;;;4.38;;
31618;SDS011;18230;51.502;7.108;2023-05-09T09:57:36;7.10;;;4.55;;
31618;SDS011;18230;51.502;7.108;2023-05-09T10:02:49;6.68;;;4.50;;
31618;SDS011;18230;51.502;7.108;2023-05-09T10:07:57;6.50;;;5.30;;
31618;SDS011;18230;51.502;7.108;2023-05-09T10:13:00;9.57;;;4.97;;
31618;SDS011;18230;51.502;7.108;2023-05-09T10:18:02;6.13;;;4.75;;
31618;SDS011;18230;51.502;7.108;2023-05-09T10:23:04;9.98;;;4.85;;
31618;SDS011;18230;51.502;7.108;2023-05-09T10:28:10;5.10;;;4.60;;
31618;SDS011;18230;51.502;7.108;2023-05-09T10:33:12;6.72;;;4.80;;
31618;SDS011;18230;51.502;7.108;2023-05-09T10:38:15;4.22;;;3.75;;
31618;SDS011;18230;51.502;7.108;2023-05-09T10:43:16;7.75;;;4.10;;
31618;SDS011;18230;51.502;7.108;2023-05-09T10:48:17;11.02;;;7.60;;
31618;SDS011;18230;51.502;7.108;2023-05-09T10:53:18;8.05;;;4.07;;
31618;SDS011;18230;51.502;7.108;2023-05-09T11:03:24;7.35;;;4.07;;
31618;SDS011;18230;51.502;7.108;2023-05-09T11:08:26;7.10;;;3.95;;
31618;SDS011;18230;51.502;7.108;2023-05-09T11:13:30;5.75;;;3.63;;
31618;SDS011;18230;51.502;7.108;2023-05-09T11:18:48;6.32;;;4.07;;
31618;SDS011;18230;51.502;7.108;2023-05-09T11:23:52;4.70;;;2.90;;
31618;SDS011;18230;51.502;7.108;2023-05-09T11:28:52;7.90;;;3.22;;
31618;SDS011;18230;51.502;7.108;2023-05-09T11:33:53;7.00;;;3.00;;
31618;SDS011;18230;51.502;7.108;2023-05-09T11:39:09;9.00;;;2.97;;
31618;SDS011;18230;51.502;7.108;2023-05-09T11:44:14;6.38;;;3.10;;
31618;SDS011;18230;51.502;7.108;2023-05-09T11:55:18;4.32;;;2.40;;
31618;SDS011;18230;51.502;7.108;2023-05-09T12:00:29;8.68;;;2.72;;
31618;SDS011;18230;51.502;7.108;2023-05-09T12:05:30;2.67;;;1.90;;
31618;SDS011;18230;51.502;7.108;2023-05-09T12:10:31;4.47;;;2.17;;
31618;SDS011;18230;51.502;7.108;2023-05-09T12:15:37;3.78;;;2.13;;
31618;SDS011;18230;51.502;7.108;2023-05-09T12:20:56;3.50;;;2.05;;
31618;SDS011;18230;51.502;7.108;2023-05-09T12:25:58;5.70;;;1.95;;
31618;SDS011;18230;51.502;7.108;2023-05-09T12:30:58;11.00;;;2.55;;
31618;SDS011;18230;51.502;7.108;2023-05-09T12:36:10;5.15;;;2.75;;
31618;SDS011;18230;51.502;7.108;2023-05-09T12:41:11;5.25;;;2.47;;
31618;SDS011;18230;51.502;7.108;2023-05-09T12:46:16;5.03;;;2.63;;
31618;SDS011;18230;51.502;7.108;2023-05-09T12:51:18;6.55;;;3.20;;
31618;SDS011;18230;51.502;7.108;2023-05-09T12:56:20;8.82;;;2.80;;
31618;SDS011;18230;51.502;7.108;2023-05-09T13:01:27;12.50;;;4.05;;
31618;SDS011;18230;51.502;7.108;2023-05-09T13:06:28;5.13;;;2.83;;
31618;SDS011;18230;51.502;7.108;2023-05-09T13:11:29;7.28;;;2.40;;
31618;SDS011;18230;51.502;7.108;2023-05-09T13:16:31;4.97;;;2.00;;
31618;SDS011;18230;51.502;7.108;2023-05-09T13:21:32;4.95;;;2.13;;
31618;SDS011;18230;51.502;7.108;2023-05-09T13:26:33;3.50;;;2.08;;
31618;SDS011;18230;51.502;7.108;2023-05-09T13:31:34;4.47;;;2.17;;
31618;SDS011;18230;51.502;7.108;2023-05-09T13:36:34;4.38;;;1.70;;
31618;SDS011;18230;51.502;7.108;2023-05-09T13:41:35;2.88;;;1.60;;
31618;SDS011;18230;51.502;7.108;2023-05-09T13:46:36;4.25;;;2.30;;
31618;SDS011;18230;51.502;7.108;2023-05-09T13:51:37;5.97;;;1.95;;
31618;SDS011;18230;51.502;7.108;2023-05-09T13:56:38;6.28;;;2.17;;
31618;SDS011;18230;51.502;7.108;2023-05-09T14:01:39;4.25;;;2.10;;
31618;SDS011;18230;51.502;7.108;2023-05-09T14:06:40;8.15;;;3.97;;
31618;SDS011;18230;51.502;7.108;2023-05-09T14:11:47;8.30;;;4.85;;
31618;SDS011;18230;51.502;7.108;2023-05-09T14:16:50;12.85;;;4.72;;
31618;SDS011;18230;51.502;7.108;2023-05-09T14:21:51;13.20;;;5.15;;
31618;SDS011;18230;51.502;7.108;2023-05-09T14:26:52;9.98;;;5.35;;
31618;SDS011;18230;51.502;7.108;2023-05-09T14:31:53;9.98;;;5.40;;
31618;SDS011;18230;51.502;7.108;2023-05-09T14:36:54;11.80;;;7.38;;
31618;SDS011;18230;51.502;7.108;2023-05-09T14:41:55;19.75;;;10.68;;
31618;SDS011;18230;51.502;7.108;2023-05-09T14:46:56;17.58;;;10.82;;
31618;SDS011;18230;51.502;7.108;2023-05-09T14:51:56;20.15;;;11.27;;
31618;SDS011;18230;51.502;7.108;2023-05-09T14:56:57;23.05;;;13.65;;
31618;SDS011;18230;51.502;7.108;2023-05-09T15:01:58;20.25;;;12.07;;
31618;SDS011;18230;51.502;7.108;2023-05-09T15:06:59;22.35;;;14.90;;
31618;SDS011;18230;51.502;7.108;2023-05-09T15:12:00;21.98;;;15.68;;
31618;SDS011;18230;51.502;7.108;2023-05-09T15:17:00;23.75;;;19.00;;
31618;SDS011;18230;51.502;7.108;2023-05-09T15:22:03;25.27;;;19.52;;
31618;SDS011;18230;51.502;7.108;2023-05-09T15:27:05;26.52;;;21.13;;
31618;SDS011;18230;51.502;7.108;2023-05-09T15:32:05;30.17;;;24.67;;
31618;SDS011;18230;51.502;7.108;2023-05-09T15:37:06;33.25;;;25.52;;
31618;SDS011;18230;51.502;7.108;2023-05-09T15:42:07;33.92;;;27.02;;
31618;SDS011;18230;51.502;7.108;2023-05-09T15:47:11;40.78;;;30.75;;
31618;SDS011;18230;51.502;7.108;2023-05-09T15:52:13;39.17;;;27.13;;
31618;SDS011;18230;51.502;7.108;2023-05-09T15:57:14;30.85;;;24.10;;
31618;SDS011;18230;51.502;7.108;2023-05-09T16:02:16;24.20;;;19.40;;
31618;SDS011;18230;51.502;7.108;2023-05-09T16:07:17;22.52;;;17.77;;
31618;SDS011;18230;51.502;7.108;2023-05-09T16:12:19;21.85;;;16.65;;
31618;SDS011;18230;51.502;7.108;2023-05-09T16:17:20;20.15;;;14.75;;
31618;SDS011;18230;51.502;7.108;2023-05-09T16:22:20;20.23;;;14.45;;
31618;SDS011;18230;51.502;7.108;2023-05-09T16:27:21;16.80;;;11.40;;
31618;SDS011;18230;51.502;7.108;2023-05-09T16:32:22;15.23;;;11.20;;
31618;SDS011;18230;51.502;7.108;2023-05-09T16:37:23;14.85;;;10.82;;
31618;SDS011;18230;51.502;7.108;2023-05-09T16:42:24;14.35;;;10.68;;
31618;SDS011;18230;51.502;7.108;2023-05-09T16:47:24;13.75;;;11.32;;
31618;SDS011;18230;51.502;7.108;2023-05-09T16:52:25;16.60;;;11.57;;
31618;SDS011;18230;51.502;7.108;2023-05-09T16:57:26;14.32;;;11.32;;
31618;SDS011;18230;51.502;7.108;2023-05-09T17:02:26;12.85;;;11.10;;
31618;SDS011;18230;51.502;7.108;2023-05-09T17:07:27;15.15;;;11.95;;
31618;SDS011;18230;51.502;7.108;2023-05-09T17:12:28;14.82;;;11.38;;
31618;SDS011;18230;51.502;7.108;2023-05-09T17:17:29;14.75;;;11.95;;
31618;SDS011;18230;51.502;7.108;2023-05-09T17:22:30;24.55;;;19.13;;
31618;SDS011;18230;51.502;7.108;2023-05-09T17:27:31;24.58;;;19.02;;
31618;SDS011;18230;51.502;7.108;2023-05-09T17:32:32;29.15;;;22.25;;
31618;SDS011;18230;51.502;7.108;2023-05-09T17:37:32;25.30;;;19.30;;
31618;SDS011;18230;51.502;7.108;2023-05-09T17:42:33;20.55;;;16.92;;
31618;SDS011;18230;51.502;7.108;2023-05-09T17:47:34;18.27;;;14.23;;
31618;SDS011;18230;51.502;7.108;2023-05-09T17:52:36;22.33;;;15.10;;
31618;SDS011;18230;51.502;7.108;2023-05-09T17:57:37;17.15;;;14.23;;
31618;SDS011;18230;51.502;7.108;2023-05-09T18:02:38;21.17;;;15.30;;
31618;SDS011;18230;51.502;7.108;2023-05-09T18:07:39;17.83;;;13.52;;
31618;SDS011;18230;51.502;7.108;2023-05-09T18:12:40;17.50;;;11.55;;
31618;SDS011;18230;51.502;7.108;2023-05-09T18:17:44;12.40;;;10.68;;
31618;SDS011;18230;51.502;7.108;2023-05-09T18:22:47;13.60;;;8.55;;
31618;SDS011;18230;51.502;7.108;2023-05-09T18:27:47;11.15;;;8.63;;
31618;SDS011;18230;51.502;7.108;2023-05-09T18:32:48;11.70;;;8.23;;
31618;SDS011;18230;51.502;7.108;2023-05-09T18:37:49;9.30;;;8.25;;
31618;SDS011;18230;51.502;7.108;2023-05-09T18:42:50;12.40;;;7.18;;
31618;SDS011;18230;51.502;7.108;2023-05-09T18:47:51;12.43;;;8.27;;
31618;SDS011;18230;51.502;7.108;2023-05-09T18:52:51;10.82;;;8.85;;
31618;SDS011;18230;51.502;7.108;2023-05-09T18:57:52;12.13;;;9.57;;
31618;SDS011;18230;51.502;7.108;2023-05-09T19:02:53;15.15;;;8.20;;
31618;SDS011;18230;51.502;7.108;2023-05-09T19:07:54;7.15;;;4.78;;
31618;SDS011;18230;51.502;7.108;2023-05-09T19:12:55;7.10;;;4.35;;
31618;SDS011;18230;51.502;7.108;2023-05-09T19:17:55;4.97;;;3.55;;
31618;SDS011;18230;51.502;7.108;2023-05-09T19:22:56;4.68;;;2.47;;
31618;SDS011;18230;51.502;7.108;2023-05-09T19:27:58;4.70;;;3.05;;
31618;SDS011;18230;51.502;7.108;2023-05-09T19:32:59;5.13;;;2.45;;
31618;SDS011;18230;51.502;7.108;2023-05-09T19:37:59;9.93;;;5.95;;
31618;SDS011;18230;51.502;7.108;2023-05-09T19:43:00;3.85;;;2.80;;
31618;SDS011;18230;51.502;7.108;2023-05-09T19:48:01;5.65;;;2.10;;
31618;SDS011;18230;51.502;7.108;2023-05-09T19:53:02;7.82;;;2.35;;
31618;SDS011;18230;51.502;7.108;2023-05-09T19:58:03;4.82;;;2.03;;
31618;SDS011;18230;51.502;7.108;2023-05-09T20:03:03;3.63;;;2.03;;
31618;SDS011;18230;51.502;7.108;2023-05-09T20:08:04;6.25;;;2.72;;
31618;SDS011;18230;51.502;7.108;2023-05-09T20:13:05;4.45;;;2.67;;
31618;SDS011;18230;51.502;7.108;2023-05-09T20:18:06;5.35;;;2.67;;
31618;SDS011;18230;51.502;7.108;2023-05-09T20:23:06;4.65;;;2.80;;
31618;SDS011;18230;51.502;7.108;2023-05-09T20:28:08;6.72;;;4.45;;
31618;SDS011;18230;51.502;7.108;2023-05-09T20:33:10;6.90;;;4.78;;
31618;SDS011;18230;51.502;7.108;2023-05-09T20:38:11;9.20;;;5.53;;
31618;SDS011;18230;51.502;7.108;2023-05-09T20:43:12;8.00;;;5.47;;
31618;SDS011;18230;51.502;7.108;2023-05-09T20:48:13;11.07;;;5.43;;
31618;SDS011;18230;51.502;7.108;2023-05-09T20:53:13;11.00;;;6.93;;
31618;SDS011;18230;51.502;7.108;2023-05-09T20:58:14;8.05;;;5.88;;
31618;SDS011;18230;51.502;7.108;2023-05-09T21:03:15;9.00;;;5.85;;
31618;SDS011;18230;51.502;7.108;2023-05-09T21:08:16;11.88;;;7.70;;
31618;SDS011;18230;51.502;7.108;2023-05-09T21:13:17;11.60;;;6.20;;
31618;SDS011;18230;51.502;7.108;2023-05-09T21:18:19;8.00;;;5.75;;
31618;SDS011;18230;51.502;7.108;2023-05-09T21:23:20;7.78;;;4.57;;
31618;SDS011;18230;51.502;7.108;2023-05-09T21:28:20;8.73;;;5.13;;
31618;SDS011;18230;51.502;7.108;2023-05-09T21:33:21;9.50;;;5.22;;
31618;SDS011;18230;51.502;7.108;2023-05-09T21:38:22;8.45;;;4.30;;
31618;SDS011;18230;51.502;7.108;2023-05-09T21:43:23;8.00;;;4.50;;
31618;SDS011;18230;51.502;7.108;2023-05-09T21:48:24;8.95;;;4.03;;
31618;SDS011;18230;51.502;7.108;2023-05-09T21:53:24;7.10;;;4.80;;
31618;SDS011;18230;51.502;7.108;2023-05-09T21:58:25;7.03;;;3.95;;
31618;SDS011;18230;51.502;7.108;2023-05-09T22:03:26;7.43;;;3.88;;
31618;SDS011;18230;51.502;7.108;2023-05-09T22:08:27;4.63;;;3.75;;
31618;SDS011;18230;51.502;7.108;2023-05-09T22:13:27;6.30;;;4.32;;
31618;SDS011;18230;51.502;7.108;2023-05-09T22:18:29;5.70;;;3.90;;
31618;SDS011;18230;51.502;7.108;2023-05-09T22:23:30;4.97;;;3.70;;
31618;SDS011;18230;51.502;7.108;2023-05-09T22:28:31;5.03;;;4.00;;
31618;SDS011;18230;51.502;7.108;2023-05-09T22:33:32;7.53;;;4.00;;
31618;SDS011;18230;51.502;7.108;2023-05-09T22:38:33;6.35;;;4.57;;
31618;SDS011;18230;51.502;7.108;2023-05-09T22:43:34;4.43;;;4.00;;
31618;SDS011;18230;51.502;7.108;2023-05-09T22:48:35;5.20;;;3.90;;
31618;SDS011;18230;51.502;7.108;2023-05-09T22:53:36;5.82;;;4.20;;
31618;SDS011;18230;51.502;7.108;2023-05-09T22:58:36;9.25;;;5.57;;
31618;SDS011;18230;51.502;7.108;2023-05-09T23:03:43;4.72;;;4.25;;
31618;SDS011;18230;51.502;7.108;2023-05-09T23:08:43;5.65;;;4.65;;
31618;SDS011;18230;51.502;7.108;2023-05-09T23:13:44;6.47;;;4.88;;
31618;SDS011;18230;51.502;7.108;2023-05-09T23:18:45;7.35;;;5.45;;
31618;SDS011;18230;51.502;7.108;2023-05-09T23:23:46;6.60;;;5.22;;
31618;SDS011;18230;51.502;7.108;2023-05-09T23:28:46;8.82;;;5.65;;
31618;SDS011;18230;51.502;7.108;2023-05-09T23:33:47;6.50;;;5.70;;
31618;SDS011;18230;51.502;7.108;2023-05-09T23:38:48;7.95;;;6.88;;
31618;SDS011;18230;51.502;7.108;2023-05-09T23:43:49;7.43;;;6.60;;
31618;SDS011;18230;51.502;7.108;2023-05-09T23:48:50;8.68;;;7.20;;
31618;SDS011;18230;51.502;7.108;2023-05-09T23:53:55;10.25;;;7.35;;
31618;SDS011;18230;51.502;7.108;2023-05-09T23:58:56;9.90;;;7.47;;
